sensor_id;sensor_type;location;lat;lon;timestamp;pressure;altitude;pressure_sealevel;temperature;humidity
50702;BME280;36670;50.094;8.496;2022-10-19T00:01:16;101438.94;;;15.29;75.17
50702;BME280;36670;50.094;8.496;2022-10-19T00:03:44;101437.75;;;15.25;75.13
50702;BME280;36670;50.094;8.496;2022-10-19T00:08:36;101430.31;;;15.31;75.38
50702;BME280;36670;50.094;8.496;2022-10-19T00:11:02;101434.97;;;15.25;75.48
50702;BME280;36670;50.094;8.496;2022-10-19T00:13:27;101431.56;;;15.01;75.76
50702;BME280;36670;50.094;8.496;2022-10-19T00:15:52;101432.59;;;14.95;75.70
50702;BME280;36670;50.094;8.496;2022-10-19T00:18:18;101433.34;;;14.90;75.08
50702;BME280;36670;50.094;8.496;2022-10-19T00:20:44;101428.69;;;14.62;76.43
50702;BME280;36670;50.094;8.496;2022-10-19T00:23:09;101425.25;;;14.55;76.27
50702;BME280;36670;50.094;8.496;2022-10-19T00:25:35;101423.22;;;14.50;76.45
50702;BME280;36670;50.094;8.496;2022-10-19T00:28:02;101419.31;;;14.63;75.89
50702;BME280;36670;50.094;8.496;2022-10-19T00:30:28;101416.25;;;14.81;75.48
50702;BME280;36670;50.094;8.496;2022-10-19T00:32:53;101424.50;;;14.93;75.05
50702;BME280;36670;50.094;8.496;2022-10-19T00:35:19;101428.72;;;15.13;74.81
50702;BME280;36670;50.094;8.496;2022-10-19T00:37:44;101421.31;;;15.41;74.23
50702;BME280;36670;50.094;8.496;2022-10-19T00:40:09;101421.50;;;15.56;73.77
50702;BME280;36670;50.094;8.496;2022-10-19T00:42:35;101420.13;;;15.59;73.10
50702;BME280;36670;50.094;8.496;2022-10-19T00:45:05;101422.22;;;15.68;72.80
50702;BME280;36670;50.094;8.496;2022-10-19T00:47:31;101419.22;;;15.75;72.74
50702;BME280;36670;50.094;8.496;2022-10-19T00:49:57;101420.91;;;15.76;72.24
50702;BME280;36670;50.094;8.496;2022-10-19T00:52:24;101414.06;;;15.62;72.51
50702;BME280;36670;50.094;8.496;2022-10-19T00:54:52;101409.25;;;15.57;72.22
50702;BME280;36670;50.094;8.496;2022-10-19T00:57:18;101415.03;;;15.50;72.29
50702;BME280;36670;50.094;8.496;2022-10-19T00:59:44;101413.78;;;15.41;72.46
50702;BME280;36670;50.094;8.496;2022-10-19T01:02:11;101412.72;;;15.25;72.93
50702;BME280;36670;50.094;8.496;2022-10-19T01:04:39;101410.28;;;15.29;72.78
50702;BME280;36670;50.094;8.496;2022-10-19T01:07:06;101408.31;;;15.29;72.78
50702;BME280;36670;50.094;8.496;2022-10-19T01:09:32;101411.31;;;15.23;73.05
50702;BME280;36670;50.094;8.496;2022-10-19T01:12:20;101416.91;;;15.06;73.29
50702;BME280;36670;50.094;8.496;2022-10-19T01:17:43;101415.28;;;15.10;72.97
50702;BME280;36670;50.094;8.496;2022-10-19T01:22:52;101415.75;;;14.84;73.50
50702;BME280;36670;50.094;8.496;2022-10-19T01:25:43;101413.81;;;14.85;73.23
50702;BME280;36670;50.094;8.496;2022-10-19T01:28:28;101419.88;;;14.82;73.74
50702;BME280;36670;50.094;8.496;2022-10-19T01:31:14;101411.28;;;14.83;73.93
50702;BME280;36670;50.094;8.496;2022-10-19T01:34:08;101412.72;;;14.86;73.30
50702;BME280;36670;50.094;8.496;2022-10-19T01:36:45;101407.34;;;14.62;73.45
50702;BME280;36670;50.094;8.496;2022-10-19T01:39:24;101404.22;;;14.76;73.78
50702;BME280;36670;50.094;8.496;2022-10-19T01:42:07;101410.00;;;14.91;73.03
50702;BME280;36670;50.094;8.496;2022-10-19T01:44:54;101408.09;;;14.75;73.83
50702;BME280;36670;50.094;8.496;2022-10-19T01:47:29;101403.69;;;14.62;73.90
50702;BME280;36670;50.094;8.496;2022-10-19T01:50:15;101406.91;;;14.71;73.46
50702;BME280;36670;50.094;8.496;2022-10-19T01:52:42;101404.69;;;14.39;74.20
50702;BME280;36670;50.094;8.496;2022-10-19T01:55:10;101403.97;;;14.14;74.67
50702;BME280;36670;50.094;8.496;2022-10-19T01:57:40;101407.13;;;13.89;75.47
50702;BME280;36670;50.094;8.496;2022-10-19T02:00:09;101397.09;;;14.17;74.58
50702;BME280;36670;50.094;8.496;2022-10-19T02:02:39;101401.47;;;14.30;74.41
50702;BME280;36670;50.094;8.496;2022-10-19T02:05:06;101394.44;;;14.39;74.67
50702;BME280;36670;50.094;8.496;2022-10-19T02:07:32;101392.31;;;14.46;74.35
50702;BME280;36670;50.094;8.496;2022-10-19T02:09:59;101393.66;;;14.61;73.46
50702;BME280;36670;50.094;8.496;2022-10-19T02:12:25;101398.34;;;14.26;74.42
50702;BME280;36670;50.094;8.496;2022-10-19T02:14:56;101400.03;;;14.10;74.22
50702;BME280;36670;50.094;8.496;2022-10-19T02:17:26;101394.44;;;13.93;74.81
50702;BME280;36670;50.094;8.496;2022-10-19T02:19:53;101397.59;;;13.85;75.58
50702;BME280;36670;50.094;8.496;2022-10-19T02:22:20;101388.63;;;13.95;75.49
50702;BME280;36670;50.094;8.496;2022-10-19T02:24:46;101399.38;;;14.20;74.89
50702;BME280;36670;50.094;8.496;2022-10-19T02:27:11;101386.50;;;14.31;74.77
50702;BME280;36670;50.094;8.496;2022-10-19T02:29:37;101386.50;;;14.31;74.64
50702;BME280;36670;50.094;8.496;2022-10-19T02:32:03;101389.25;;;14.14;75.37
50702;BME280;36670;50.094;8.496;2022-10-19T02:34:29;101384.28;;;14.16;74.64
50702;BME280;36670;50.094;8.496;2022-10-19T02:36:55;101378.22;;;14.02;75.02
50702;BME280;36670;50.094;8.496;2022-10-19T02:39:21;101384.53;;;14.14;75.30
50702;BME280;36670;50.094;8.496;2022-10-19T02:41:51;101382.88;;;14.30;74.33
50702;BME280;36670;50.094;8.496;2022-10-19T02:44:29;101379.09;;;14.20;74.75
50702;BME280;36670;50.094;8.496;2022-10-19T02:47:09;101368.97;;;14.13;75.34
50702;BME280;36670;50.094;8.496;2022-10-19T02:49:37;101371.19;;;14.28;75.32
50702;BME280;36670;50.094;8.496;2022-10-19T02:52:06;101369.59;;;14.32;74.17
50702;BME280;36670;50.094;8.496;2022-10-19T02:54:31;101365.44;;;14.18;74.03
50702;BME280;36670;50.094;8.496;2022-10-19T02:56:57;101373.03;;;14.23;74.70
50702;BME280;36670;50.094;8.496;2022-10-19T02:59:23;101367.16;;;14.53;74.01
50702;BME280;36670;50.094;8.496;2022-10-19T03:01:48;101368.41;;;14.62;72.89
50702;BME280;36670;50.094;8.496;2022-10-19T03:04:14;101368.16;;;14.64;72.95
50702;BME280;36670;50.094;8.496;2022-10-19T03:06:39;101369.31;;;14.51;73.19
50702;BME280;36670;50.094;8.496;2022-10-19T03:09:04;101362.25;;;14.60;72.97
50702;BME280;36670;50.094;8.496;2022-10-19T03:11:30;101362.25;;;14.77;72.72
50702;BME280;36670;50.094;8.496;2022-10-19T03:13:55;101364.84;;;15.01;71.37
50702;BME280;36670;50.094;8.496;2022-10-19T03:16:20;101359.91;;;15.08;71.80
50702;BME280;36670;50.094;8.496;2022-10-19T03:18:49;101361.28;;;15.06;71.59
50702;BME280;36670;50.094;8.496;2022-10-19T03:21:15;101364.97;;;15.11;70.76
50702;BME280;36670;50.094;8.496;2022-10-19T03:23:41;101351.75;;;15.01;71.94
50702;BME280;36670;50.094;8.496;2022-10-19T03:26:07;101355.41;;;15.02;71.47
50702;BME280;36670;50.094;8.496;2022-10-19T03:28:33;101343.75;;;15.05;70.99
50702;BME280;36670;50.094;8.496;2022-10-19T03:30:58;101349.63;;;14.87;70.89
50702;BME280;36670;50.094;8.496;2022-10-19T03:33:24;101348.63;;;14.59;71.75
50702;BME280;36670;50.094;8.496;2022-10-19T03:35:49;101347.78;;;14.41;71.91
50702;BME280;36670;50.094;8.496;2022-10-19T03:38:15;101349.63;;;14.52;71.79
50702;BME280;36670;50.094;8.496;2022-10-19T03:40:40;101358.81;;;14.70;71.78
50702;BME280;36670;50.094;8.496;2022-10-19T03:43:05;101352.41;;;14.52;72.00
50702;BME280;36670;50.094;8.496;2022-10-19T03:45:31;101356.94;;;14.42;72.21
50702;BME280;36670;50.094;8.496;2022-10-19T03:47:56;101353.56;;;14.57;72.04
50702;BME280;36670;50.094;8.496;2022-10-19T03:50:21;101355.38;;;14.63;71.49
50702;BME280;36670;50.094;8.496;2022-10-19T03:52:47;101351.06;;;14.55;72.38
50702;BME280;36670;50.094;8.496;2022-10-19T03:55:15;101346.84;;;14.52;71.57
50702;BME280;36670;50.094;8.496;2022-10-19T03:57:40;101353.94;;;14.43;72.00
50702;BME280;36670;50.094;8.496;2022-10-19T04:00:07;101356.94;;;14.08;72.96
50702;BME280;36670;50.094;8.496;2022-10-19T04:02:32;101356.50;;;13.99;73.64
50702;BME280;36670;50.094;8.496;2022-10-19T04:04:58;101359.06;;;13.89;74.05
50702;BME280;36670;50.094;8.496;2022-10-19T04:07:23;101363.53;;;13.90;74.55
50702;BME280;36670;50.094;8.496;2022-10-19T04:09:48;101364.69;;;14.06;74.35
50702;BME280;36670;50.094;8.496;2022-10-19T04:12:14;101358.88;;;14.24;73.03
50702;BME280;36670;50.094;8.496;2022-10-19T04:14:39;101360.63;;;14.13;73.44
50702;BME280;36670;50.094;8.496;2022-10-19T04:17:05;101364.06;;;14.04;73.69
50702;BME280;36670;50.094;8.496;2022-10-19T04:19:31;101364.47;;;13.95;74.42
50702;BME280;36670;50.094;8.496;2022-10-19T04:21:56;101365.63;;;13.82;74.57
50702;BME280;36670;50.094;8.496;2022-10-19T04:24:22;101363.63;;;13.78;74.74
50702;BME280;36670;50.094;8.496;2022-10-19T04:26:49;101359.78;;;13.67;74.59
50702;BME280;36670;50.094;8.496;2022-10-19T04:29:16;101364.88;;;13.58;75.75
50702;BME280;36670;50.094;8.496;2022-10-19T04:31:43;101371.16;;;13.54;75.93
50702;BME280;36670;50.094;8.496;2022-10-19T04:34:09;101357.59;;;13.69;75.07
50702;BME280;36670;50.094;8.496;2022-10-19T04:36:35;101367.31;;;13.55;75.79
50702;BME280;36670;50.094;8.496;2022-10-19T04:39:02;101364.34;;;13.44;76.00
50702;BME280;36670;50.094;8.496;2022-10-19T04:41:27;101359.22;;;13.53;75.82
50702;BME280;36670;50.094;8.496;2022-10-19T04:43:58;101361.41;;;13.51;75.92
50702;BME280;36670;50.094;8.496;2022-10-19T04:46:24;101359.09;;;13.60;75.26
50702;BME280;36670;50.094;8.496;2022-10-19T04:48:50;101359.69;;;13.62;75.47
50702;BME280;36670;50.094;8.496;2022-10-19T04:51:16;101359.56;;;13.57;75.78
50702;BME280;36670;50.094;8.496;2022-10-19T04:53:43;101354.66;;;13.47;76.06
50702;BME280;36670;50.094;8.496;2022-10-19T04:56:20;101356.66;;;13.63;75.47
50702;BME280;36670;50.094;8.496;2022-10-19T04:58:46;101353.88;;;13.63;75.67
50702;BME280;36670;50.094;8.496;2022-10-19T05:01:14;101359.53;;;13.69;75.91
50702;BME280;36670;50.094;8.496;2022-10-19T05:03:40;101364.19;;;13.80;75.10
50702;BME280;36670;50.094;8.496;2022-10-19T05:06:06;101369.59;;;13.87;74.36
50702;BME280;36670;50.094;8.496;2022-10-19T05:08:32;101362.78;;;13.94;74.50
50702;BME280;36670;50.094;8.496;2022-10-19T05:11:05;101363.78;;;13.59;75.74
50702;BME280;36670;50.094;8.496;2022-10-19T05:13:31;101370.63;;;13.69;75.12
50702;BME280;36670;50.094;8.496;2022-10-19T05:16:02;101360.22;;;13.76;74.29
50702;BME280;36670;50.094;8.496;2022-10-19T05:18:28;101370.63;;;13.69;75.25
50702;BME280;36670;50.094;8.496;2022-10-19T05:21:05;101367.03;;;13.68;74.97
50702;BME280;36670;50.094;8.496;2022-10-19T05:23:31;101366.47;;;13.83;74.89
50702;BME280;36670;50.094;8.496;2022-10-19T05:26:08;101373.31;;;13.92;74.63
50702;BME280;36670;50.094;8.496;2022-10-19T05:28:34;101363.00;;;13.76;74.89
50702;BME280;36670;50.094;8.496;2022-10-19T05:33:31;101357.44;;;13.76;75.19
50702;BME280;36670;50.094;8.496;2022-10-19T05:35:56;101360.50;;;13.62;75.58
50702;BME280;36670;50.094;8.496;2022-10-19T05:38:22;101360.63;;;13.68;75.40
50702;BME280;36670;50.094;8.496;2022-10-19T05:40:47;101357.44;;;13.76;75.67
50702;BME280;36670;50.094;8.496;2022-10-19T05:43:12;101358.78;;;13.73;75.05
50702;BME280;36670;50.094;8.496;2022-10-19T05:45:38;101358.28;;;13.76;75.79
50702;BME280;36670;50.094;8.496;2022-10-19T05:48:03;101363.25;;;14.03;75.29
50702;BME280;36670;50.094;8.496;2022-10-19T05:50:28;101357.94;;;14.02;75.25
50702;BME280;36670;50.094;8.496;2022-10-19T05:52:54;101353.91;;;14.09;74.34
50702;BME280;36670;50.094;8.496;2022-10-19T05:55:19;101355.22;;;14.07;74.74
50702;BME280;36670;50.094;8.496;2022-10-19T05:57:44;101352.78;;;13.93;74.66
50702;BME280;36670;50.094;8.496;2022-10-19T06:00:10;101353.72;;;13.99;74.36
50702;BME280;36670;50.094;8.496;2022-10-19T06:02:36;101354.31;;;14.01;74.63
50702;BME280;36670;50.094;8.496;2022-10-19T06:05:01;101356.94;;;14.08;74.88
50702;BME280;36670;50.094;8.496;2022-10-19T06:07:26;101359.56;;;14.14;74.36
50702;BME280;36670;50.094;8.496;2022-10-19T06:09:52;101355.34;;;14.12;74.68
50702;BME280;36670;50.094;8.496;2022-10-19T06:12:18;101357.53;;;14.10;74.38
50702;BME280;36670;50.094;8.496;2022-10-19T06:14:44;101348.19;;;14.16;73.69
50702;BME280;36670;50.094;8.496;2022-10-19T06:17:09;101356.41;;;14.11;74.25
50702;BME280;36670;50.094;8.496;2022-10-19T06:19:35;101356.81;;;14.03;74.09
50702;BME280;36670;50.094;8.496;2022-10-19T06:22:00;101361.19;;;13.98;74.76
50702;BME280;36670;50.094;8.496;2022-10-19T06:24:25;101363.53;;;13.90;74.21
50702;BME280;36670;50.094;8.496;2022-10-19T06:26:51;101362.78;;;13.94;74.54
50702;BME280;36670;50.094;8.496;2022-10-19T06:29:16;101361.44;;;13.97;74.38
50702;BME280;36670;50.094;8.496;2022-10-19T06:31:41;101363.38;;;13.96;73.13
50702;BME280;36670;50.094;8.496;2022-10-19T06:34:07;101361.81;;;13.72;74.46
50702;BME280;36670;50.094;8.496;2022-10-19T06:36:32;101369.69;;;13.92;73.79
50702;BME280;36670;50.094;8.496;2022-10-19T06:38:58;101368.53;;;14.05;73.03
50702;BME280;36670;50.094;8.496;2022-10-19T06:41:25;101370.53;;;13.92;74.07
50702;BME280;36670;50.094;8.496;2022-10-19T06:43:52;101376.19;;;13.97;74.45
50702;BME280;36670;50.094;8.496;2022-10-19T06:46:19;101372.22;;;13.93;74.36
50702;BME280;36670;50.094;8.496;2022-10-19T06:48:57;101372.00;;;14.12;73.76
50702;BME280;36670;50.094;8.496;2022-10-19T06:51:24;101369.13;;;14.07;73.68
50702;BME280;36670;50.094;8.496;2022-10-19T06:53:50;101367.19;;;14.07;73.92
50702;BME280;36670;50.094;8.496;2022-10-19T06:56:16;101373.09;;;14.11;72.96
50702;BME280;36670;50.094;8.496;2022-10-19T06:58:41;101370.81;;;14.08;73.22
50702;BME280;36670;50.094;8.496;2022-10-19T07:01:07;101374.22;;;14.27;72.39
50702;BME280;36670;50.094;8.496;2022-10-19T07:03:34;101379.25;;;14.13;72.71
50702;BME280;36670;50.094;8.496;2022-10-19T07:06:01;101387.31;;;14.14;72.34
50702;BME280;36670;50.094;8.496;2022-10-19T07:08:29;101384.13;;;14.23;71.63
50702;BME280;36670;50.094;8.496;2022-10-19T07:10:58;101387.38;;;14.03;72.47
50702;BME280;36670;50.094;8.496;2022-10-19T07:13:24;101389.66;;;14.06;72.00
50702;BME280;36670;50.094;8.496;2022-10-19T07:15:58;101390.00;;;14.09;71.59
50702;BME280;36670;50.094;8.496;2022-10-19T07:18:25;101390.22;;;13.91;71.66
50702;BME280;36670;50.094;8.496;2022-10-19T07:20:55;101384.81;;;13.84;72.60
50702;BME280;36670;50.094;8.496;2022-10-19T07:23:21;101385.75;;;13.90;72.12
50702;BME280;36670;50.094;8.496;2022-10-19T07:25:46;101393.38;;;13.82;72.53
50702;BME280;36670;50.094;8.496;2022-10-19T07:28:12;101396.81;;;14.02;70.95
50702;BME280;36670;50.094;8.496;2022-10-19T07:30:37;101395.53;;;13.92;71.74
50702;BME280;36670;50.094;8.496;2022-10-19T07:33:03;101389.03;;;13.87;71.54
50702;BME280;36670;50.094;8.496;2022-10-19T07:35:29;101383.91;;;13.95;72.31
50702;BME280;36670;50.094;8.496;2022-10-19T07:37:54;101387.28;;;13.97;71.51
50702;BME280;36670;50.094;8.496;2022-10-19T07:40:20;101392.09;;;14.02;71.19
50702;BME280;36670;50.094;8.496;2022-10-19T07:42:45;101391.91;;;13.92;71.56
50702;BME280;36670;50.094;8.496;2022-10-19T07:45:10;101407.69;;;14.20;72.01
50702;BME280;36670;50.094;8.496;2022-10-19T07:47:35;101407.69;;;14.20;70.61
50702;BME280;36670;50.094;8.496;2022-10-19T07:50:01;101405.91;;;14.14;70.74
50702;BME280;36670;50.094;8.496;2022-10-19T07:52:26;101412.50;;;14.25;70.50
50702;BME280;36670;50.094;8.496;2022-10-19T07:54:51;101412.28;;;14.43;70.19
50702;BME280;36670;50.094;8.496;2022-10-19T07:57:17;101400.72;;;14.51;69.13
50702;BME280;36670;50.094;8.496;2022-10-19T07:59:42;101410.91;;;14.46;69.31
50702;BME280;36670;50.094;8.496;2022-10-19T08:02:13;101399.97;;;14.56;68.29
50702;BME280;36670;50.094;8.496;2022-10-19T08:04:40;101407.47;;;14.56;68.44
50702;BME280;36670;50.094;8.496;2022-10-19T08:07:05;101412.34;;;14.48;68.98
50702;BME280;36670;50.094;8.496;2022-10-19T08:09:31;101414.81;;;14.62;68.79
50702;BME280;36670;50.094;8.496;2022-10-19T08:11:56;101407.91;;;14.81;67.36
50702;BME280;36670;50.094;8.496;2022-10-19T08:14:21;101415.91;;;14.61;68.30
50702;BME280;36670;50.094;8.496;2022-10-19T08:16:47;101414.72;;;14.57;68.76
50702;BME280;36670;50.094;8.496;2022-10-19T08:19:14;101413.66;;;14.75;67.96
50702;BME280;36670;50.094;8.496;2022-10-19T08:21:42;101412.31;;;14.77;68.22
50702;BME280;36670;50.094;8.496;2022-10-19T08:24:08;101412.09;;;15.01;67.81
50702;BME280;36670;50.094;8.496;2022-10-19T08:26:36;101399.13;;;15.07;66.61
50702;BME280;36670;50.094;8.496;2022-10-19T08:29:13;101396.78;;;14.98;66.21
50702;BME280;36670;50.094;8.496;2022-10-19T08:31:40;101396.88;;;14.87;67.69
50702;BME280;36670;50.094;8.496;2022-10-19T08:34:06;101395.34;;;14.96;67.60
50702;BME280;36670;50.094;8.496;2022-10-19T08:36:31;101389.88;;;15.01;67.56
50702;BME280;36670;50.094;8.496;2022-10-19T08:39:00;101391.94;;;15.11;66.69
50702;BME280;36670;50.094;8.496;2022-10-19T08:41:31;101389.88;;;15.01;65.60
50702;BME280;36670;50.094;8.496;2022-10-19T08:50:13;101394.81;;;15.16;65.34
50702;BME280;36670;50.094;8.496;2022-10-19T08:52:41;101383.34;;;15.12;65.26
50702;BME280;36670;50.094;8.496;2022-10-19T08:55:11;101402.81;;;15.12;65.90
50702;BME280;36670;50.094;8.496;2022-10-19T08:57:53;101383.09;;;15.14;64.79
50702;BME280;36670;50.094;8.496;2022-10-19T09:00:46;101386.16;;;15.34;64.54
50702;BME280;36670;50.094;8.496;2022-10-19T09:06:31;101375.41;;;15.43;65.00
50702;BME280;36670;50.094;8.496;2022-10-19T09:08:59;101369.53;;;15.40;64.06
50702;BME280;36670;50.094;8.496;2022-10-19T09:11:28;101381.03;;;15.26;64.25
50702;BME280;36670;50.094;8.496;2022-10-19T09:14:20;101379.28;;;15.20;65.04
50702;BME280;36670;50.094;8.496;2022-10-19T09:16:47;101365.88;;;15.17;65.27
50702;BME280;36670;50.094;8.496;2022-10-19T09:19:24;101366.75;;;15.40;64.98
50702;BME280;36670;50.094;8.496;2022-10-19T09:21:56;101368.34;;;15.58;64.53
50702;BME280;36670;50.094;8.496;2022-10-19T09:24:50;101371.44;;;15.61;63.67
50702;BME280;36670;50.094;8.496;2022-10-19T09:27:21;101357.75;;;15.32;64.46
50702;BME280;36670;50.094;8.496;2022-10-19T09:29:58;101357.88;;;15.43;65.51
50702;BME280;36670;50.094;8.496;2022-10-19T09:32:34;101368.72;;;15.66;63.83
50702;BME280;36670;50.094;8.496;2022-10-19T09:35:05;101361.34;;;15.55;64.29
50702;BME280;36670;50.094;8.496;2022-10-19T09:37:36;101365.56;;;15.35;64.25
50702;BME280;36670;50.094;8.496;2022-10-19T09:40:05;101368.03;;;15.32;64.77
50702;BME280;36670;50.094;8.496;2022-10-19T09:42:32;101367.31;;;15.42;64.97
50702;BME280;36670;50.094;8.496;2022-10-19T09:45:00;101372.22;;;15.34;65.18
50702;BME280;36670;50.094;8.496;2022-10-19T09:47:35;101367.38;;;15.47;64.73
50702;BME280;36670;50.094;8.496;2022-10-19T09:52:41;101354.75;;;15.61;64.75
50702;BME280;36670;50.094;8.496;2022-10-19T09:57:50;101372.72;;;15.76;64.12
50702;BME280;36670;50.094;8.496;2022-10-19T10:00:25;101374.66;;;15.75;64.04
50702;BME280;36670;50.094;8.496;2022-10-19T10:02:55;101369.09;;;15.75;65.01
50702;BME280;36670;50.094;8.496;2022-10-19T10:05:33;101350.59;;;15.86;65.04
50702;BME280;36670;50.094;8.496;2022-10-19T10:07:58;101355.59;;;15.84;64.41
50702;BME280;36670;50.094;8.496;2022-10-19T10:10:34;101362.16;;;16.00;63.86
50702;BME280;36670;50.094;8.496;2022-10-19T10:13:02;101367.50;;;16.07;64.35
50702;BME280;36670;50.094;8.496;2022-10-19T10:15:35;101359.03;;;15.96;64.73
50702;BME280;36670;50.094;8.496;2022-10-19T10:18:05;101360.78;;;16.02;63.84
50702;BME280;36670;50.094;8.496;2022-10-19T10:20:31;101367.19;;;16.03;63.78
50702;BME280;36670;50.094;8.496;2022-10-19T10:23:03;101371.25;;;15.90;64.31
50702;BME280;36670;50.094;8.496;2022-10-19T10:25:33;101365.81;;;15.78;65.10
50702;BME280;36670;50.094;8.496;2022-10-19T10:30:43;101362.41;;;15.98;65.44
50702;BME280;36670;50.094;8.496;2022-10-19T10:33:15;101358.63;;;16.10;65.67
50702;BME280;36670;50.094;8.496;2022-10-19T10:35:47;101355.75;;;16.32;64.34
50702;BME280;36670;50.094;8.496;2022-10-19T10:38:42;101369.91;;;16.25;64.16
50702;BME280;36670;50.094;8.496;2022-10-19T10:41:13;101344.13;;;16.08;64.99
50702;BME280;36670;50.094;8.496;2022-10-19T10:43:48;101350.84;;;16.12;65.36
50702;BME280;36670;50.094;8.496;2022-10-19T10:46:20;101344.94;;;16.41;65.12
50702;BME280;36670;50.094;8.496;2022-10-19T10:48:57;101350.34;;;16.52;64.31
50702;BME280;36670;50.094;8.496;2022-10-19T10:56:38;101339.25;;;16.58;64.86
50702;BME280;36670;50.094;8.496;2022-10-19T10:59:17;101330.22;;;16.88;62.78
50702;BME280;36670;50.094;8.496;2022-10-19T11:02:02;101330.34;;;16.66;63.74
50702;BME280;36670;50.094;8.496;2022-10-19T11:04:33;101329.50;;;16.60;64.11
50702;BME280;36670;50.094;8.496;2022-10-19T11:07:17;101331.50;;;16.70;64.32
50702;BME280;36670;50.094;8.496;2022-10-19T11:09:49;101320.50;;;16.91;63.54
50702;BME280;36670;50.094;8.496;2022-10-19T11:12:27;101307.19;;;17.03;63.54
50702;BME280;36670;50.094;8.496;2022-10-19T11:15:23;101318.69;;;17.17;62.56
50702;BME280;36670;50.094;8.496;2022-10-19T11:17:57;101315.06;;;17.21;62.96
50702;BME280;36670;50.094;8.496;2022-10-19T11:20:29;101318.66;;;17.12;63.05
50702;BME280;36670;50.094;8.496;2022-10-19T11:26:09;101306.66;;;17.11;62.84
50702;BME280;36670;50.094;8.496;2022-10-19T11:31:23;101288.59;;;17.29;62.19
50702;BME280;36670;50.094;8.496;2022-10-19T11:34:14;101288.53;;;17.09;62.66
50702;BME280;36670;50.094;8.496;2022-10-19T11:37:08;101289.63;;;17.02;63.76
50702;BME280;36670;50.094;8.496;2022-10-19T11:50:30;101270.50;;;17.42;63.12
50702;BME280;36670;50.094;8.496;2022-10-19T11:53:15;101267.38;;;17.28;63.78
50702;BME280;36670;50.094;8.496;2022-10-19T12:01:27;101254.50;;;17.06;65.00
50702;BME280;36670;50.094;8.496;2022-10-19T12:09:52;101239.69;;;17.06;65.93
50702;BME280;36670;50.094;8.496;2022-10-19T12:12:32;101247.50;;;17.04;65.22
50702;BME280;36670;50.094;8.496;2022-10-19T12:15:11;101245.25;;;17.06;65.07
50702;BME280;36670;50.094;8.496;2022-10-19T12:17:44;101247.44;;;16.94;65.63
50702;BME280;36670;50.094;8.496;2022-10-19T12:20:20;101239.66;;;16.96;65.57
50702;BME280;36670;50.094;8.496;2022-10-19T12:22:48;101231.53;;;16.89;65.29
50702;BME280;36670;50.094;8.496;2022-10-19T12:25:15;101234.56;;;16.87;66.04
50702;BME280;36670;50.094;8.496;2022-10-19T12:27:42;101230.09;;;16.86;66.45
50702;BME280;36670;50.094;8.496;2022-10-19T12:30:15;101234.84;;;16.86;66.28
50702;BME280;36670;50.094;8.496;2022-10-19T12:35:54;101210.44;;;17.19;64.96
50702;BME280;36670;50.094;8.496;2022-10-19T12:41:09;101216.03;;;17.19;65.55
50702;BME280;36670;50.094;8.496;2022-10-19T12:43:55;101207.41;;;17.36;64.87
50702;BME280;36670;50.094;8.496;2022-10-19T12:46:47;101204.34;;;17.53;64.22
50702;BME280;36670;50.094;8.496;2022-10-19T12:51:52;101204.03;;;17.23;65.12
50702;BME280;36670;50.094;8.496;2022-10-19T12:54:22;101201.28;;;17.44;64.51
50702;BME280;36670;50.094;8.496;2022-10-19T12:56:50;101194.84;;;17.49;64.74
50702;BME280;36670;50.094;8.496;2022-10-19T12:59:32;101195.38;;;17.25;65.18
50702;BME280;36670;50.094;8.496;2022-10-19T13:01:58;101197.63;;;17.44;65.08
50702;BME280;36670;50.094;8.496;2022-10-19T13:04:27;101187.25;;;17.18;65.67
50702;BME280;36670;50.094;8.496;2022-10-19T13:09:39;101180.88;;;17.33;64.54
50702;BME280;36670;50.094;8.496;2022-10-19T13:14:54;101179.22;;;17.48;64.83
50702;BME280;36670;50.094;8.496;2022-10-19T13:25:29;101160.47;;;17.22;66.00
50702;BME280;36670;50.094;8.496;2022-10-19T13:27:56;101153.22;;;17.11;66.17
50702;BME280;36670;50.094;8.496;2022-10-19T13:38:32;101142.63;;;17.13;66.59
50702;BME280;36670;50.094;8.496;2022-10-19T13:41:21;101143.47;;;17.24;66.68
50702;BME280;36670;50.094;8.496;2022-10-19T14:00:13;101123.97;;;17.34;66.34
50702;BME280;36670;50.094;8.496;2022-10-19T14:07:53;101120.31;;;17.54;65.58
50702;BME280;36670;50.094;8.496;2022-10-19T14:10:21;101123.09;;;17.54;65.99
50702;BME280;36670;50.094;8.496;2022-10-19T14:12:48;101110.81;;;17.66;65.41
50702;BME280;36670;50.094;8.496;2022-10-19T14:15:25;101111.13;;;17.54;65.73
50702;BME280;36670;50.094;8.496;2022-10-19T14:17:54;101116.69;;;17.59;66.04
50702;BME280;36670;50.094;8.496;2022-10-19T14:22:48;101115.56;;;17.86;64.85
50702;BME280;36670;50.094;8.496;2022-10-19T14:25:19;101120.03;;;17.77;65.27
50702;BME280;36670;50.094;8.496;2022-10-19T14:27:46;101116.41;;;17.71;64.71
50702;BME280;36670;50.094;8.496;2022-10-19T14:30:23;101112.19;;;17.89;65.07
50702;BME280;36670;50.094;8.496;2022-10-19T14:32:49;101098.78;;;18.01;64.09
50702;BME280;36670;50.094;8.496;2022-10-19T14:35:22;101106.59;;;17.89;64.51
50702;BME280;36670;50.094;8.496;2022-10-19T14:37:48;101101.03;;;17.68;65.07
50702;BME280;36670;50.094;8.496;2022-10-19T14:40:22;101085.13;;;17.58;65.81
50702;BME280;36670;50.094;8.496;2022-10-19T14:42:48;101093.53;;;17.48;65.79
50702;BME280;36670;50.094;8.496;2022-10-19T14:47:54;101104.09;;;17.87;65.07
50702;BME280;36670;50.094;8.496;2022-10-19T14:50:28;101098.25;;;17.73;65.19
50702;BME280;36670;50.094;8.496;2022-10-19T14:53:01;101090.69;;;17.79;65.33
50702;BME280;36670;50.094;8.496;2022-10-19T14:55:33;101080.28;;;18.11;65.16
50702;BME280;36670;50.094;8.496;2022-10-19T14:58:08;101091.16;;;18.28;65.15
50702;BME280;36670;50.094;8.496;2022-10-19T15:00:34;101089.91;;;18.54;64.36